sensor_id;sensor_type;location;lat;lon;timestamp;P1;durP1;ratioP1;P2;durP2;ratioP2
57303;SDS011;43150;50.986;18.208;2023-06-26T00:01:03;9.20;;;8.30;;
57303;SDS011;43150;50.986;18.208;2023-06-26T00:03:30;9.70;;;8.50;;
57303;SDS011;43150;50.986;18.208;2023-06-26T00:05:57;9.20;;;8.30;;
57303;SDS011;43150;50.986;18.208;2023-06-26T00:08:26;9.30;;;8.30;;
57303;SDS011;43150;50.986;18.208;2023-06-26T00:10:51;9.90;;;8.90;;
57303;SDS011;43150;50.986;18.208;2023-06-26T00:13:17;9.50;;;8.50;;
57303;SDS011;43150;50.986;18.208;2023-06-26T00:15:42;9.20;;;8.10;;
57303;SDS011;43150;50.986;18.208;2023-06-26T00:18:08;10.50;;;9.10;;
57303;SDS011;43150;50.986;18.208;2023-06-26T00:20:33;9.20;;;8.20;;
57303;SDS011;43150;50.986;18.208;2023-06-26T00:22:59;9.40;;;8.40;;
57303;SDS011;43150;50.986;18.208;2023-06-26T00:25:25;8.90;;;8.00;;
57303;SDS011;43150;50.986;18.208;2023-06-26T00:27:51;9.20;;;8.30;;
57303;SDS011;43150;50.986;18.208;2023-06-26T00:30:16;9.90;;;8.80;;
57303;SDS011;43150;50.986;18.208;2023-06-26T00:32:42;9.10;;;8.20;;
57303;SDS011;43150;50.986;18.208;2023-06-26T00:35:07;10.00;;;8.40;;
57303;SDS011;43150;50.986;18.208;2023-06-26T00:37:33;16.90;;;10.10;;
57303;SDS011;43150;50.986;18.208;2023-06-26T00:39:59;9.70;;;7.80;;
57303;SDS011;43150;50.986;18.208;2023-06-26T00:42:24;10.20;;;9.10;;
57303;SDS011;43150;50.986;18.208;2023-06-26T00:44:50;10.20;;;9.20;;
57303;SDS011;43150;50.986;18.208;2023-06-26T00:47:15;9.80;;;8.70;;
57303;SDS011;43150;50.986;18.208;2023-06-26T00:49:41;8.20;;;7.30;;
57303;SDS011;43150;50.986;18.208;2023-06-26T00:52:06;9.90;;;8.50;;
57303;SDS011;43150;50.986;18.208;2023-06-26T00:54:32;8.90;;;7.90;;
57303;SDS011;43150;50.986;18.208;2023-06-26T00:56:58;9.60;;;7.90;;
57303;SDS011;43150;50.986;18.208;2023-06-26T00:59:24;9.10;;;7.60;;
57303;SDS011;43150;50.986;18.208;2023-06-26T01:01:49;8.70;;;5.10;;
57303;SDS011;43150;50.986;18.208;2023-06-26T01:04:15;8.50;;;7.70;;
57303;SDS011;43150;50.986;18.208;2023-06-26T01:06:44;10.00;;;7.50;;
57303;SDS011;43150;50.986;18.208;2023-06-26T01:09:17;9.50;;;8.50;;
57303;SDS011;43150;50.986;18.208;2023-06-26T01:11:43;9.90;;;8.90;;
57303;SDS011;43150;50.986;18.208;2023-06-26T01:14:09;9.00;;;7.90;;
57303;SDS011;43150;50.986;18.208;2023-06-26T01:16:35;9.80;;;5.20;;
57303;SDS011;43150;50.986;18.208;2023-06-26T01:19:00;9.70;;;5.70;;
57303;SDS011;43150;50.986;18.208;2023-06-26T01:21:26;9.20;;;7.60;;
57303;SDS011;43150;50.986;18.208;2023-06-26T01:24:02;9.50;;;4.40;;
57303;SDS011;43150;50.986;18.208;2023-06-26T01:26:32;13.10;;;8.30;;
57303;SDS011;43150;50.986;18.208;2023-06-26T01:29:01;8.70;;;7.90;;
57303;SDS011;43150;50.986;18.208;2023-06-26T01:31:29;9.40;;;8.20;;
57303;SDS011;43150;50.986;18.208;2023-06-26T01:33:56;12.80;;;8.90;;
57303;SDS011;43150;50.986;18.208;2023-06-26T01:36:22;10.90;;;8.40;;
57303;SDS011;43150;50.986;18.208;2023-06-26T01:38:48;14.30;;;8.90;;
57303;SDS011;43150;50.986;18.208;2023-06-26T01:41:14;7.40;;;5.20;;
57303;SDS011;43150;50.986;18.208;2023-06-26T01:46:25;7.80;;;5.20;;
57303;SDS011;43150;50.986;18.208;2023-06-26T01:49:00;10.40;;;8.70;;
57303;SDS011;43150;50.986;18.208;2023-06-26T01:51:29;14.60;;;9.30;;
57303;SDS011;43150;50.986;18.208;2023-06-26T01:53:56;11.70;;;9.80;;
57303;SDS011;43150;50.986;18.208;2023-06-26T01:56:22;9.90;;;5.80;;
57303;SDS011;43150;50.986;18.208;2023-06-26T01:58:49;10.50;;;5.00;;
57303;SDS011;43150;50.986;18.208;2023-06-26T02:01:15;9.80;;;8.30;;
57303;SDS011;43150;50.986;18.208;2023-06-26T02:03:41;11.20;;;8.90;;
57303;SDS011;43150;50.986;18.208;2023-06-26T02:06:07;14.60;;;8.90;;
57303;SDS011;43150;50.986;18.208;2023-06-26T02:08:33;8.90;;;5.30;;
57303;SDS011;43150;50.986;18.208;2023-06-26T02:10:59;15.70;;;10.50;;
57303;SDS011;43150;50.986;18.208;2023-06-26T02:13:25;10.30;;;9.10;;
57303;SDS011;43150;50.986;18.208;2023-06-26T02:15:50;11.50;;;9.40;;
57303;SDS011;43150;50.986;18.208;2023-06-26T02:18:16;9.90;;;6.10;;
57303;SDS011;43150;50.986;18.208;2023-06-26T02:20:42;11.50;;;10.00;;
57303;SDS011;43150;50.986;18.208;2023-06-26T02:23:09;13.30;;;9.30;;
57303;SDS011;43150;50.986;18.208;2023-06-26T02:25:35;12.40;;;8.80;;
57303;SDS011;43150;50.986;18.208;2023-06-26T02:28:01;8.10;;;5.10;;
57303;SDS011;43150;50.986;18.208;2023-06-26T02:30:29;15.10;;;7.40;;
57303;SDS011;43150;50.986;18.208;2023-06-26T02:32:55;16.30;;;11.00;;
57303;SDS011;43150;50.986;18.208;2023-06-26T02:35:21;12.40;;;11.10;;
57303;SDS011;43150;50.986;18.208;2023-06-26T02:37:46;14.60;;;8.50;;
57303;SDS011;43150;50.986;18.208;2023-06-26T02:40:12;12.00;;;7.50;;
57303;SDS011;43150;50.986;18.208;2023-06-26T02:42:38;13.90;;;11.60;;
57303;SDS011;43150;50.986;18.208;2023-06-26T02:45:07;12.70;;;11.40;;
57303;SDS011;43150;50.986;18.208;2023-06-26T02:47:33;13.30;;;11.90;;
57303;SDS011;43150;50.986;18.208;2023-06-26T02:49:58;12.00;;;10.60;;
57303;SDS011;43150;50.986;18.208;2023-06-26T02:52:24;14.10;;;11.80;;
57303;SDS011;43150;50.986;18.208;2023-06-26T02:54:50;9.50;;;6.90;;
57303;SDS011;43150;50.986;18.208;2023-06-26T02:57:16;12.80;;;10.20;;
57303;SDS011;43150;50.986;18.208;2023-06-26T02:59:42;10.60;;;9.30;;
57303;SDS011;43150;50.986;18.208;2023-06-26T03:02:08;9.60;;;8.50;;
57303;SDS011;43150;50.986;18.208;2023-06-26T03:04:33;14.90;;;10.30;;
57303;SDS011;43150;50.986;18.208;2023-06-26T03:07:02;11.20;;;9.50;;
57303;SDS011;43150;50.986;18.208;2023-06-26T03:09:28;11.30;;;9.30;;
57303;SDS011;43150;50.986;18.208;2023-06-26T03:11:54;12.10;;;9.70;;
57303;SDS011;43150;50.986;18.208;2023-06-26T03:14:25;14.00;;;6.90;;
57303;SDS011;43150;50.986;18.208;2023-06-26T03:16:52;11.20;;;6.90;;
57303;SDS011;43150;50.986;18.208;2023-06-26T03:19:18;14.00;;;11.10;;
57303;SDS011;43150;50.986;18.208;2023-06-26T03:21:44;15.90;;;9.90;;
57303;SDS011;43150;50.986;18.208;2023-06-26T03:24:09;10.60;;;9.60;;
57303;SDS011;43150;50.986;18.208;2023-06-26T03:26:35;14.00;;;9.80;;
57303;SDS011;43150;50.986;18.208;2023-06-26T03:29:01;14.70;;;9.80;;
57303;SDS011;43150;50.986;18.208;2023-06-26T03:31:26;12.20;;;10.20;;
57303;SDS011;43150;50.986;18.208;2023-06-26T03:33:52;12.30;;;10.00;;
57303;SDS011;43150;50.986;18.208;2023-06-26T03:36:17;12.50;;;10.30;;
57303;SDS011;43150;50.986;18.208;2023-06-26T03:38:43;12.50;;;9.70;;
57303;SDS011;43150;50.986;18.208;2023-06-26T03:41:08;13.00;;;9.90;;
57303;SDS011;43150;50.986;18.208;2023-06-26T03:43:36;12.00;;;9.70;;
57303;SDS011;43150;50.986;18.208;2023-06-26T03:46:01;12.90;;;10.20;;
57303;SDS011;43150;50.986;18.208;2023-06-26T03:48:27;10.40;;;9.00;;
57303;SDS011;43150;50.986;18.208;2023-06-26T03:50:53;12.00;;;8.80;;
57303;SDS011;43150;50.986;18.208;2023-06-26T03:53:18;10.40;;;9.40;;
57303;SDS011;43150;50.986;18.208;2023-06-26T03:55:44;10.40;;;9.10;;
57303;SDS011;43150;50.986;18.208;2023-06-26T03:58:09;11.20;;;8.90;;
57303;SDS011;43150;50.986;18.208;2023-06-26T04:00:35;11.00;;;8.90;;
57303;SDS011;43150;50.986;18.208;2023-06-26T04:03:00;10.00;;;8.90;;
57303;SDS011;43150;50.986;18.208;2023-06-26T04:05:28;9.90;;;8.90;;
57303;SDS011;43150;50.986;18.208;2023-06-26T04:07:53;9.60;;;8.50;;
57303;SDS011;43150;50.986;18.208;2023-06-26T04:10:19;9.40;;;8.40;;
57303;SDS011;43150;50.986;18.208;2023-06-26T04:12:46;12.10;;;8.90;;
57303;SDS011;43150;50.986;18.208;2023-06-26T04:15:13;11.10;;;9.40;;
57303;SDS011;43150;50.986;18.208;2023-06-26T04:17:39;12.80;;;9.30;;
57303;SDS011;43150;50.986;18.208;2023-06-26T04:20:04;10.80;;;8.70;;
57303;SDS011;43150;50.986;18.208;2023-06-26T04:22:38;9.90;;;8.90;;
57303;SDS011;43150;50.986;18.208;2023-06-26T04:25:03;10.00;;;8.80;;
57303;SDS011;43150;50.986;18.208;2023-06-26T04:27:29;10.20;;;8.80;;
57303;SDS011;43150;50.986;18.208;2023-06-26T04:29:58;11.10;;;9.20;;
57303;SDS011;43150;50.986;18.208;2023-06-26T04:32:24;10.90;;;9.10;;
57303;SDS011;43150;50.986;18.208;2023-06-26T04:34:49;11.40;;;9.10;;
57303;SDS011;43150;50.986;18.208;2023-06-26T04:37:15;10.50;;;9.50;;
57303;SDS011;43150;50.986;18.208;2023-06-26T04:39:43;11.50;;;9.50;;
57303;SDS011;43150;50.986;18.208;2023-06-26T04:42:08;11.60;;;10.50;;
57303;SDS011;43150;50.986;18.208;2023-06-26T04:44:37;11.50;;;10.40;;
57303;SDS011;43150;50.986;18.208;2023-06-26T04:47:03;12.20;;;10.40;;
57303;SDS011;43150;50.986;18.208;2023-06-26T04:49:29;11.10;;;10.00;;
57303;SDS011;43150;50.986;18.208;2023-06-26T04:51:55;11.20;;;10.10;;
57303;SDS011;43150;50.986;18.208;2023-06-26T04:54:23;11.70;;;10.50;;
57303;SDS011;43150;50.986;18.208;2023-06-26T04:56:49;12.80;;;10.20;;
57303;SDS011;43150;50.986;18.208;2023-06-26T04:59:14;10.90;;;9.50;;
57303;SDS011;43150;50.986;18.208;2023-06-26T05:01:40;11.40;;;10.30;;
57303;SDS011;43150;50.986;18.208;2023-06-26T05:04:06;10.10;;;8.80;;
57303;SDS011;43150;50.986;18.208;2023-06-26T05:06:32;10.30;;;9.30;;
57303;SDS011;43150;50.986;18.208;2023-06-26T05:08:57;11.30;;;9.10;;
57303;SDS011;43150;50.986;18.208;2023-06-26T05:11:24;10.90;;;9.70;;
57303;SDS011;43150;50.986;18.208;2023-06-26T05:13:49;10.90;;;9.70;;
57303;SDS011;43150;50.986;18.208;2023-06-26T05:16:15;13.80;;;9.40;;
57303;SDS011;43150;50.986;18.208;2023-06-26T05:18:41;10.20;;;9.00;;
57303;SDS011;43150;50.986;18.208;2023-06-26T05:21:06;10.70;;;9.60;;
57303;SDS011;43150;50.986;18.208;2023-06-26T05:23:32;11.80;;;9.00;;
57303;SDS011;43150;50.986;18.208;2023-06-26T05:25:59;9.90;;;9.00;;
57303;SDS011;43150;50.986;18.208;2023-06-26T05:28:24;10.80;;;9.60;;
57303;SDS011;43150;50.986;18.208;2023-06-26T05:30:51;9.90;;;8.80;;
57303;SDS011;43150;50.986;18.208;2023-06-26T05:33:17;10.10;;;9.10;;
57303;SDS011;43150;50.986;18.208;2023-06-26T05:35:44;9.70;;;8.80;;
57303;SDS011;43150;50.986;18.208;2023-06-26T05:38:10;11.00;;;8.70;;
57303;SDS011;43150;50.986;18.208;2023-06-26T05:40:36;10.30;;;8.60;;
57303;SDS011;43150;50.986;18.208;2023-06-26T05:43:02;9.70;;;8.80;;
57303;SDS011;43150;50.986;18.208;2023-06-26T05:45:28;9.90;;;8.50;;
57303;SDS011;43150;50.986;18.208;2023-06-26T05:47:54;10.10;;;9.00;;
57303;SDS011;43150;50.986;18.208;2023-06-26T05:50:20;10.30;;;8.90;;
57303;SDS011;43150;50.986;18.208;2023-06-26T05:52:46;9.70;;;8.70;;
57303;SDS011;43150;50.986;18.208;2023-06-26T05:55:11;10.30;;;9.30;;
57303;SDS011;43150;50.986;18.208;2023-06-26T05:57:37;10.80;;;9.30;;
57303;SDS011;43150;50.986;18.208;2023-06-26T06:00:04;10.20;;;9.20;;
57303;SDS011;43150;50.986;18.208;2023-06-26T06:02:36;11.40;;;9.80;;
57303;SDS011;43150;50.986;18.208;2023-06-26T06:05:02;10.70;;;9.60;;
57303;SDS011;43150;50.986;18.208;2023-06-26T06:07:27;9.60;;;8.70;;
57303;SDS011;43150;50.986;18.208;2023-06-26T06:09:53;9.40;;;8.50;;
57303;SDS011;43150;50.986;18.208;2023-06-26T06:12:18;9.40;;;8.40;;
57303;SDS011;43150;50.986;18.208;2023-06-26T06:14:46;8.70;;;7.80;;
57303;SDS011;43150;50.986;18.208;2023-06-26T06:17:11;9.60;;;8.60;;
57303;SDS011;43150;50.986;18.208;2023-06-26T06:19:37;10.00;;;8.40;;
57303;SDS011;43150;50.986;18.208;2023-06-26T06:22:02;9.40;;;8.30;;
57303;SDS011;43150;50.986;18.208;2023-06-26T06:24:28;9.00;;;8.20;;
57303;SDS011;43150;50.986;18.208;2023-06-26T06:26:54;11.80;;;8.50;;
57303;SDS011;43150;50.986;18.208;2023-06-26T06:29:20;21.60;;;8.80;;
57303;SDS011;43150;50.986;18.208;2023-06-26T06:31:45;8.30;;;7.20;;
57303;SDS011;43150;50.986;18.208;2023-06-26T06:34:11;7.60;;;6.80;;
57303;SDS011;43150;50.986;18.208;2023-06-26T06:36:38;7.30;;;6.60;;
57303;SDS011;43150;50.986;18.208;2023-06-26T06:39:04;8.20;;;7.50;;
57303;SDS011;43150;50.986;18.208;2023-06-26T06:41:30;8.10;;;6.30;;
57303;SDS011;43150;50.986;18.208;2023-06-26T06:43:55;7.40;;;6.70;;
57303;SDS011;43150;50.986;18.208;2023-06-26T06:46:21;8.50;;;7.60;;
57303;SDS011;43150;50.986;18.208;2023-06-26T06:48:47;8.40;;;7.60;;
57303;SDS011;43150;50.986;18.208;2023-06-26T06:51:13;7.70;;;6.90;;
57303;SDS011;43150;50.986;18.208;2023-06-26T06:53:38;6.00;;;5.40;;
57303;SDS011;43150;50.986;18.208;2023-06-26T06:56:04;8.60;;;5.60;;
57303;SDS011;43150;50.986;18.208;2023-06-26T06:58:30;7.00;;;6.10;;
57303;SDS011;43150;50.986;18.208;2023-06-26T07:00:59;6.10;;;5.50;;
57303;SDS011;43150;50.986;18.208;2023-06-26T07:03:25;6.40;;;5.80;;
57303;SDS011;43150;50.986;18.208;2023-06-26T07:05:50;6.50;;;5.80;;
57303;SDS011;43150;50.986;18.208;2023-06-26T07:08:16;5.80;;;5.30;;
57303;SDS011;43150;50.986;18.208;2023-06-26T07:10:41;5.90;;;5.40;;
57303;SDS011;43150;50.986;18.208;2023-06-26T07:13:07;5.80;;;5.30;;
57303;SDS011;43150;50.986;18.208;2023-06-26T07:15:32;5.70;;;5.00;;
57303;SDS011;43150;50.986;18.208;2023-06-26T07:17:58;5.40;;;4.70;;
57303;SDS011;43150;50.986;18.208;2023-06-26T07:20:23;5.40;;;4.80;;
57303;SDS011;43150;50.986;18.208;2023-06-26T07:22:49;6.00;;;5.30;;
57303;SDS011;43150;50.986;18.208;2023-06-26T07:25:15;5.00;;;4.60;;
57303;SDS011;43150;50.986;18.208;2023-06-26T07:27:40;6.20;;;4.60;;
57303;SDS011;43150;50.986;18.208;2023-06-26T07:30:07;5.00;;;4.50;;
57303;SDS011;43150;50.986;18.208;2023-06-26T07:32:35;5.80;;;4.20;;
57303;SDS011;43150;50.986;18.208;2023-06-26T07:35:01;4.80;;;4.20;;
57303;SDS011;43150;50.986;18.208;2023-06-26T07:37:27;4.90;;;4.10;;
57303;SDS011;43150;50.986;18.208;2023-06-26T07:39:53;5.80;;;4.70;;
57303;SDS011;43150;50.986;18.208;2023-06-26T07:42:18;4.50;;;4.10;;
57303;SDS011;43150;50.986;18.208;2023-06-26T07:44:44;4.50;;;4.20;;
57303;SDS011;43150;50.986;18.208;2023-06-26T07:47:10;5.30;;;4.30;;
57303;SDS011;43150;50.986;18.208;2023-06-26T07:49:35;5.20;;;4.00;;
57303;SDS011;43150;50.986;18.208;2023-06-26T07:52:01;4.60;;;4.20;;
57303;SDS011;43150;50.986;18.208;2023-06-26T07:54:27;5.60;;;4.00;;
57303;SDS011;43150;50.986;18.208;2023-06-26T07:57:00;3.60;;;3.30;;
57303;SDS011;43150;50.986;18.208;2023-06-26T07:59:28;4.70;;;3.70;;
57303;SDS011;43150;50.986;18.208;2023-06-26T08:01:54;3.70;;;3.40;;
57303;SDS011;43150;50.986;18.208;2023-06-26T08:04:20;3.50;;;3.20;;
57303;SDS011;43150;50.986;18.208;2023-06-26T08:06:50;3.90;;;3.60;;
57303;SDS011;43150;50.986;18.208;2023-06-26T08:09:16;3.50;;;3.20;;
57303;SDS011;43150;50.986;18.208;2023-06-26T08:11:42;4.10;;;3.70;;
57303;SDS011;43150;50.986;18.208;2023-06-26T08:14:08;4.10;;;3.80;;
57303;SDS011;43150;50.986;18.208;2023-06-26T08:16:33;4.30;;;3.60;;
57303;SDS011;43150;50.986;18.208;2023-06-26T08:18:59;4.90;;;3.50;;
57303;SDS011;43150;50.986;18.208;2023-06-26T08:21:25;4.30;;;3.80;;
57303;SDS011;43150;50.986;18.208;2023-06-26T08:23:51;3.70;;;3.40;;
57303;SDS011;43150;50.986;18.208;2023-06-26T08:26:16;5.60;;;3.40;;
57303;SDS011;43150;50.986;18.208;2023-06-26T08:28:42;3.70;;;3.40;;
57303;SDS011;43150;50.986;18.208;2023-06-26T08:31:07;5.60;;;3.30;;
57303;SDS011;43150;50.986;18.208;2023-06-26T08:33:34;3.50;;;3.20;;
57303;SDS011;43150;50.986;18.208;2023-06-26T08:36:00;3.50;;;3.20;;
57303;SDS011;43150;50.986;18.208;2023-06-26T08:38:25;3.40;;;3.10;;
57303;SDS011;43150;50.986;18.208;2023-06-26T08:40:51;3.90;;;3.40;;
57303;SDS011;43150;50.986;18.208;2023-06-26T08:43:16;4.00;;;3.60;;
57303;SDS011;43150;50.986;18.208;2023-06-26T08:45:42;3.70;;;3.20;;
57303;SDS011;43150;50.986;18.208;2023-06-26T08:48:08;4.50;;;3.00;;
57303;SDS011;43150;50.986;18.208;2023-06-26T08:50:34;3.70;;;3.40;;
57303;SDS011;43150;50.986;18.208;2023-06-26T08:55:25;3.20;;;2.90;;
57303;SDS011;43150;50.986;18.208;2023-06-26T08:57:54;4.70;;;3.50;;
57303;SDS011;43150;50.986;18.208;2023-06-26T09:00:20;6.50;;;3.40;;
57303;SDS011;43150;50.986;18.208;2023-06-26T09:02:46;3.40;;;2.90;;
57303;SDS011;43150;50.986;18.208;2023-06-26T09:05:11;3.60;;;3.30;;
57303;SDS011;43150;50.986;18.208;2023-06-26T09:07:37;4.20;;;2.90;;
57303;SDS011;43150;50.986;18.208;2023-06-26T09:10:06;3.90;;;3.10;;
57303;SDS011;43150;50.986;18.208;2023-06-26T09:12:32;3.10;;;2.80;;
57303;SDS011;43150;50.986;18.208;2023-06-26T09:14:57;3.40;;;3.10;;
57303;SDS011;43150;50.986;18.208;2023-06-26T09:17:30;3.40;;;3.10;;
57303;SDS011;43150;50.986;18.208;2023-06-26T09:19:55;3.60;;;2.80;;
57303;SDS011;43150;50.986;18.208;2023-06-26T09:22:21;15.10;;;4.00;;
57303;SDS011;43150;50.986;18.208;2023-06-26T09:24:48;3.80;;;2.90;;
57303;SDS011;43150;50.986;18.208;2023-06-26T09:27:13;3.30;;;3.00;;
57303;SDS011;43150;50.986;18.208;2023-06-26T09:29:39;3.50;;;2.90;;
57303;SDS011;43150;50.986;18.208;2023-06-26T09:32:07;3.40;;;3.00;;
57303;SDS011;43150;50.986;18.208;2023-06-26T09:34:33;3.80;;;2.80;;
57303;SDS011;43150;50.986;18.208;2023-06-26T09:37:02;2.90;;;2.60;;
57303;SDS011;43150;50.986;18.208;2023-06-26T09:39:30;11.50;;;3.60;;
57303;SDS011;43150;50.986;18.208;2023-06-26T09:41:56;3.20;;;2.90;;
57303;SDS011;43150;50.986;18.208;2023-06-26T09:44:22;2.90;;;2.70;;
57303;SDS011;43150;50.986;18.208;2023-06-26T09:46:48;3.00;;;2.80;;
57303;SDS011;43150;50.986;18.208;2023-06-26T09:49:14;3.30;;;2.80;;
57303;SDS011;43150;50.986;18.208;2023-06-26T09:51:40;4.30;;;3.20;;
57303;SDS011;43150;50.986;18.208;2023-06-26T09:54:06;4.00;;;3.50;;
57303;SDS011;43150;50.986;18.208;2023-06-26T09:56:33;3.50;;;3.20;;
57303;SDS011;43150;50.986;18.208;2023-06-26T09:58:59;7.30;;;3.70;;
57303;SDS011;43150;50.986;18.208;2023-06-26T10:01:26;4.50;;;3.00;;
57303;SDS011;43150;50.986;18.208;2023-06-26T10:03:54;3.60;;;3.00;;
57303;SDS011;43150;50.986;18.208;2023-06-26T10:06:24;3.50;;;3.20;;
57303;SDS011;43150;50.986;18.208;2023-06-26T10:08:51;3.50;;;3.20;;
57303;SDS011;43150;50.986;18.208;2023-06-26T10:11:19;3.20;;;2.90;;
57303;SDS011;43150;50.986;18.208;2023-06-26T10:13:46;4.70;;;3.50;;
57303;SDS011;43150;50.986;18.208;2023-06-26T10:16:15;4.50;;;3.60;;
57303;SDS011;43150;50.986;18.208;2023-06-26T10:18:43;3.50;;;2.90;;
57303;SDS011;43150;50.986;18.208;2023-06-26T10:21:09;3.50;;;3.20;;
57303;SDS011;43150;50.986;18.208;2023-06-26T10:23:36;4.20;;;3.10;;
57303;SDS011;43150;50.986;18.208;2023-06-26T10:26:03;4.20;;;3.50;;
57303;SDS011;43150;50.986;18.208;2023-06-26T10:28:29;3.70;;;3.40;;
57303;SDS011;43150;50.986;18.208;2023-06-26T10:30:57;4.30;;;3.20;;
57303;SDS011;43150;50.986;18.208;2023-06-26T10:33:23;3.70;;;3.10;;
57303;SDS011;43150;50.986;18.208;2023-06-26T10:35:50;3.60;;;3.20;;
57303;SDS011;43150;50.986;18.208;2023-06-26T10:38:16;2.80;;;2.60;;
57303;SDS011;43150;50.986;18.208;2023-06-26T10:40:47;4.80;;;3.30;;
57303;SDS011;43150;50.986;18.208;2023-06-26T10:43:16;2.80;;;2.60;;
57303;SDS011;43150;50.986;18.208;2023-06-26T10:45:44;4.10;;;2.80;;
57303;SDS011;43150;50.986;18.208;2023-06-26T10:48:12;3.50;;;2.90;;
57303;SDS011;43150;50.986;18.208;2023-06-26T10:50:38;2.90;;;2.60;;
57303;SDS011;43150;50.986;18.208;2023-06-26T10:53:07;3.10;;;2.80;;
57303;SDS011;43150;50.986;18.208;2023-06-26T10:55:35;3.40;;;3.10;;
57303;SDS011;43150;50.986;18.208;2023-06-26T10:58:01;3.90;;;3.40;;
57303;SDS011;43150;50.986;18.208;2023-06-26T11:00:30;4.30;;;3.20;;
57303;SDS011;43150;50.986;18.208;2023-06-26T11:02:55;6.10;;;3.40;;
57303;SDS011;43150;50.986;18.208;2023-06-26T11:05:28;3.80;;;3.30;;
57303;SDS011;43150;50.986;18.208;2023-06-26T11:08:06;4.30;;;2.90;;
57303;SDS011;43150;50.986;18.208;2023-06-26T11:10:48;4.30;;;3.20;;
57303;SDS011;43150;50.986;18.208;2023-06-26T11:13:14;3.40;;;3.10;;
57303;SDS011;43150;50.986;18.208;2023-06-26T11:15:40;3.80;;;2.80;;
57303;SDS011;43150;50.986;18.208;2023-06-26T11:18:07;3.40;;;3.00;;
57303;SDS011;43150;50.986;18.208;2023-06-26T11:20:33;3.50;;;3.10;;
57303;SDS011;43150;50.986;18.208;2023-06-26T11:22:58;12.30;;;4.40;;
57303;SDS011;43150;50.986;18.208;2023-06-26T11:25:24;3.70;;;3.20;;
57303;SDS011;43150;50.986;18.208;2023-06-26T11:27:49;7.60;;;3.60;;
57303;SDS011;43150;50.986;18.208;2023-06-26T11:30:25;5.60;;;3.20;;
57303;SDS011;43150;50.986;18.208;2023-06-26T11:32:51;4.20;;;2.90;;
57303;SDS011;43150;50.986;18.208;2023-06-26T11:35:23;3.40;;;2.80;;
57303;SDS011;43150;50.986;18.208;2023-06-26T11:37:58;3.40;;;3.00;;
57303;SDS011;43150;50.986;18.208;2023-06-26T11:40:26;3.30;;;3.00;;
57303;SDS011;43150;50.986;18.208;2023-06-26T11:45:22;2.50;;;2.30;;
57303;SDS011;43150;50.986;18.208;2023-06-26T11:47:47;13.40;;;4.70;;
57303;SDS011;43150;50.986;18.208;2023-06-26T11:50:16;8.20;;;4.50;;
57303;SDS011;43150;50.986;18.208;2023-06-26T11:52:56;3.30;;;3.00;;
57303;SDS011;43150;50.986;18.208;2023-06-26T11:55:41;4.30;;;3.10;;
57303;SDS011;43150;50.986;18.208;2023-06-26T11:58:08;2.80;;;2.60;;
57303;SDS011;43150;50.986;18.208;2023-06-26T12:00:34;3.20;;;2.80;;
57303;SDS011;43150;50.986;18.208;2023-06-26T12:02:59;16.50;;;4.00;;
57303;SDS011;43150;50.986;18.208;2023-06-26T12:05:26;3.10;;;2.80;;
57303;SDS011;43150;50.986;18.208;2023-06-26T12:07:52;3.30;;;3.00;;
57303;SDS011;43150;50.986;18.208;2023-06-26T12:10:18;3.40;;;3.10;;
57303;SDS011;43150;50.986;18.208;2023-06-26T12:12:44;3.30;;;3.10;;
57303;SDS011;43150;50.986;18.208;2023-06-26T12:15:15;4.80;;;3.30;;
57303;SDS011;43150;50.986;18.208;2023-06-26T12:17:41;3.60;;;3.00;;
57303;SDS011;43150;50.986;18.208;2023-06-26T12:20:23;3.60;;;3.30;;
57303;SDS011;43150;50.986;18.208;2023-06-26T12:22:51;4.30;;;3.20;;
57303;SDS011;43150;50.986;18.208;2023-06-26T12:25:25;4.50;;;3.00;;
57303;SDS011;43150;50.986;18.208;2023-06-26T12:27:51;3.30;;;3.00;;
57303;SDS011;43150;50.986;18.208;2023-06-26T12:30:16;3.50;;;3.00;;
57303;SDS011;43150;50.986;18.208;2023-06-26T12:32:45;3.00;;;2.70;;
57303;SDS011;43150;50.986;18.208;2023-06-26T12:35:12;3.70;;;3.00;;
57303;SDS011;43150;50.986;18.208;2023-06-26T12:37:37;3.30;;;3.00;;
57303;SDS011;43150;50.986;18.208;2023-06-26T12:40:17;5.40;;;3.00;;
57303;SDS011;43150;50.986;18.208;2023-06-26T12:42:44;3.80;;;3.40;;
57303;SDS011;43150;50.986;18.208;2023-06-26T12:45:12;5.10;;;2.80;;
57303;SDS011;43150;50.986;18.208;2023-06-26T12:47:38;3.60;;;3.30;;
57303;SDS011;43150;50.986;18.208;2023-06-26T12:50:05;3.40;;;3.10;;
57303;SDS011;43150;50.986;18.208;2023-06-26T12:52:31;37.00;;;5.50;;
57303;SDS011;43150;50.986;18.208;2023-06-26T12:54:56;3.90;;;2.60;;
57303;SDS011;43150;50.986;18.208;2023-06-26T12:57:22;3.30;;;3.00;;
57303;SDS011;43150;50.986;18.208;2023-06-26T12:59:48;5.10;;;3.00;;
57303;SDS011;43150;50.986;18.208;2023-06-26T13:02:14;7.20;;;3.20;;
57303;SDS011;43150;50.986;18.208;2023-06-26T13:04:40;4.50;;;3.00;;
57303;SDS011;43150;50.986;18.208;2023-06-26T13:07:06;3.50;;;2.90;;
57303;SDS011;43150;50.986;18.208;2023-06-26T13:09:33;6.10;;;2.90;;
57303;SDS011;43150;50.986;18.208;2023-06-26T13:11:59;2.70;;;2.50;;
57303;SDS011;43150;50.986;18.208;2023-06-26T13:14:24;2.80;;;2.60;;
57303;SDS011;43150;50.986;18.208;2023-06-26T13:16:50;4.40;;;2.70;;
57303;SDS011;43150;50.986;18.208;2023-06-26T13:19:15;3.10;;;2.80;;
57303;SDS011;43150;50.986;18.208;2023-06-26T13:21:41;5.50;;;3.40;;
57303;SDS011;43150;50.986;18.208;2023-06-26T13:24:07;11.70;;;3.70;;
57303;SDS011;43150;50.986;18.208;2023-06-26T13:26:33;3.00;;;2.60;;
57303;SDS011;43150;50.986;18.208;2023-06-26T13:28:58;3.50;;;3.20;;
57303;SDS011;43150;50.986;18.208;2023-06-26T13:31:24;3.00;;;2.70;;
57303;SDS011;43150;50.986;18.208;2023-06-26T13:33:52;3.10;;;2.80;;
57303;SDS011;43150;50.986;18.208;2023-06-26T13:36:18;3.00;;;2.80;;
57303;SDS011;43150;50.986;18.208;2023-06-26T13:38:44;2.90;;;2.70;;
57303;SDS011;43150;50.986;18.208;2023-06-26T13:41:10;4.10;;;2.70;;
57303;SDS011;43150;50.986;18.208;2023-06-26T13:43:35;3.90;;;3.20;;
57303;SDS011;43150;50.986;18.208;2023-06-26T13:46:01;3.30;;;2.90;;
57303;SDS011;43150;50.986;18.208;2023-06-26T13:48:35;4.60;;;2.70;;
57303;SDS011;43150;50.986;18.208;2023-06-26T13:51:01;3.50;;;2.70;;
57303;SDS011;43150;50.986;18.208;2023-06-26T13:53:26;3.30;;;2.90;;
57303;SDS011;43150;50.986;18.208;2023-06-26T13:55:52;4.20;;;2.90;;
57303;SDS011;43150;50.986;18.208;2023-06-26T13:58:17;2.80;;;2.60;;
57303;SDS011;43150;50.986;18.208;2023-06-26T14:00:44;3.10;;;2.90;;
57303;SDS011;43150;50.986;18.208;2023-06-26T14:03:10;3.10;;;2.80;;
57303;SDS011;43150;50.986;18.208;2023-06-26T14:05:36;3.90;;;2.80;;
57303;SDS011;43150;50.986;18.208;2023-06-26T14:08:06;3.60;;;3.20;;
57303;SDS011;43150;50.986;18.208;2023-06-26T14:10:32;6.20;;;3.30;;
57303;SDS011;43150;50.986;18.208;2023-06-26T14:12:58;3.60;;;2.80;;
57303;SDS011;43150;50.986;18.208;2023-06-26T14:15:24;3.10;;;2.90;;
57303;SDS011;43150;50.986;18.208;2023-06-26T14:17:49;3.40;;;3.10;;
57303;SDS011;43150;50.986;18.208;2023-06-26T14:20:16;3.40;;;2.90;;
57303;SDS011;43150;50.986;18.208;2023-06-26T14:22:43;3.00;;;2.70;;
57303;SDS011;43150;50.986;18.208;2023-06-26T14:25:09;3.20;;;3.00;;
57303;SDS011;43150;50.986;18.208;2023-06-26T14:27:35;2.80;;;2.60;;
57303;SDS011;43150;50.986;18.208;2023-06-26T14:30:01;4.10;;;2.90;;
57303;SDS011;43150;50.986;18.208;2023-06-26T14:32:27;3.00;;;2.70;;